Time;durP1;ratioP1;P1;durP2;ratioP2;P2;SDS_P1;SDS_P2;PMS_P1;PMS_P2;Temp;Humidity;BMP_temperature;BMP_pressure;BME280_temperature;BME280_humidity;BME280_pressure;Samples;Min_cycle;Max_cycle;Signal;HPM_P1;HPM_P2
2023/01/28 00:02:12;;;;;;;5.17;4.67;;;;;;;;;;5013902;28;20191;-75
2023/01/28 00:04:39;;;;;;;5.53;4.90;;;;;;;;;;5014971;28;20261;-73
2023/01/28 00:07:05;;;;;;;4.63;4.23;;;;;;;;;;5013712;28;20209;-76
2023/01/28 00:09:31;;;;;;;4.37;3.97;;;;;;;;;;4998458;28;20310;-75
2023/01/28 00:11:57;;;;;;;4.83;4.43;;;;;;;;;;5015658;28;20199;-75
2023/01/28 00:14:24;;;;;;;4.40;4.00;;;;;;;;;;5015196;28;20991;-76
2023/01/28 00:16:50;;;;;;;5.00;4.23;;;;;;;;;;5015355;28;20281;-75
2023/01/28 00:19:16;;;;;;;5.73;4.57;;;;;;;;;;5015837;28;20182;-74
2023/01/28 00:21:42;;;;;;;5.70;4.40;;;;;;;;;;5012017;28;20240;-73
2023/01/28 00:24:08;;;;;;;5.17;4.67;;;;;;;;;;5015315;28;20229;-75
2023/01/28 00:26:35;;;;;;;5.50;5.00;;;;;;;;;;4998091;28;20210;-75
2023/01/28 00:29:01;;;;;;;5.30;4.70;;;;;;;;;;5013262;28;20186;-75
2023/01/28 00:31:28;;;;;;;5.37;4.50;;;;;;;;;;5015247;28;20213;-75
2023/01/28 00:33:55;;;;;;;5.70;5.10;;;;;;;;;;5015980;28;20182;-75
2023/01/28 00:36:22;;;;;;;5.20;4.70;;;;;;;;;;5012090;28;20207;-74
2023/01/28 00:38:55;;;;;;;5.60;5.00;;;;;;;;;;5012805;28;20191;-75
2023/01/28 00:41:22;;;;;;;5.67;4.93;;;;;;;;;;5011336;28;20694;-74
2023/01/28 00:43:50;;;;;;;4.90;4.30;;;;;;;;;;5014253;28;20186;-75
2023/01/28 00:46:17;;;;;;;5.43;4.87;;;;;;;;;;5012994;28;20245;-74
2023/01/28 00:48:43;;;;;;;5.17;4.40;;;;;;;;;;5012367;28;20203;-73
2023/01/28 00:51:12;;;;;;;4.67;4.17;;;;;;;;;;5011376;28;20364;-74
2023/01/28 00:53:38;;;;;;;4.40;4.00;;;;;;;;;;5012914;28;20187;-74
2023/01/28 00:56:06;;;;;;;4.90;4.07;;;;;;;;;;5013386;28;20199;-76
2023/01/28 00:58:32;;;;;;;4.93;3.90;;;;;;;;;;5014218;28;20266;-75
2023/01/28 01:01:12;;;;;;;4.47;3.77;;;;;;;;;;5012145;28;20194;-75
2023/01/28 01:03:39;;;;;;;4.47;4.07;;;;;;;;;;5014769;28;20677;-76
2023/01/28 01:06:05;;;;;;;4.20;3.80;;;;;;;;;;5012172;28;20206;-75
2023/01/28 01:08:34;;;;;;;4.20;3.80;;;;;;;;;;5011685;28;20183;-75
2023/01/28 01:11:03;;;;;;;4.93;4.17;;;;;;;;;;5013978;28;20708;-75
2023/01/28 01:13:31;;;;;;;4.97;4.20;;;;;;;;;;5009602;28;20186;-74
2023/01/28 01:16:01;;;;;;;5.43;4.70;;;;;;;;;;5011945;28;20317;-75
2023/01/28 01:18:27;;;;;;;4.40;4.00;;;;;;;;;;5011871;28;20191;-74
2023/01/28 01:20:57;;;;;;;4.27;3.87;;;;;;;;;;5000998;28;20195;-75
2023/01/28 01:23:27;;;;;;;4.03;3.63;;;;;;;;;;5014671;28;20198;-75
2023/01/28 01:25:54;;;;;;;4.30;3.90;;;;;;;;;;5012170;28;20207;-75
2023/01/28 01:28:20;;;;;;;6.07;3.87;;;;;;;;;;5011225;28;20272;-75
2023/01/28 01:30:47;;;;;;;3.80;3.50;;;;;;;;;;5015394;28;20254;-75
2023/01/28 01:33:13;;;;;;;4.10;3.50;;;;;;;;;;5014356;28;20178;-75
2023/01/28 01:35:39;;;;;;;3.80;3.40;;;;;;;;;;5012964;28;20207;-75
2023/01/28 01:38:06;;;;;;;4.00;3.60;;;;;;;;;;5011454;28;20187;-74
2023/01/28 01:40:32;;;;;;;4.00;3.60;;;;;;;;;;5014025;28;21618;-73
2023/01/28 01:42:59;;;;;;;3.43;3.13;;;;;;;;;;5014657;28;20181;-74
2023/01/28 01:45:26;;;;;;;4.17;3.63;;;;;;;;;;5014308;28;20202;-74
2023/01/28 01:47:55;;;;;;;4.00;3.60;;;;;;;;;;5015957;28;20195;-75
2023/01/28 01:50:46;;;;;;;3.90;3.30;;;;;;;;;;5022179;28;20227;-75
2023/01/28 01:53:15;;;;;;;3.67;3.17;;;;;;;;;;5017259;28;20712;-75
2023/01/28 01:55:44;;;;;;;3.07;2.77;;;;;;;;;;4999533;28;20859;-75
2023/01/28 01:58:13;;;;;;;3.27;2.97;;;;;;;;;;5017118;28;20906;-76
2023/01/28 02:00:39;;;;;;;3.53;3.17;;;;;;;;;;5015220;28;20423;-74
2023/01/28 02:03:06;;;;;;;3.58;3.28;;;;;;;;;;5013923;28;20442;-75
2023/01/28 02:05:32;;;;;;;3.30;3.00;;;;;;;;;;5013212;28;20312;-75
2023/01/28 02:08:19;;;;;;;4.00;3.40;;;;;;;;;;5015593;28;20198;-74
2023/01/28 02:10:46;;;;;;;4.57;3.70;;;;;;;;;;5017018;28;20294;-75
2023/01/28 02:13:14;;;;;;;3.60;3.30;;;;;;;;;;5014020;28;20182;-74
2023/01/28 02:15:41;;;;;;;3.33;3.00;;;;;;;;;;5011987;28;20298;-75
2023/01/28 02:18:08;;;;;;;3.97;3.33;;;;;;;;;;5015996;28;20183;-74
2023/01/28 02:21:07;;;;;;;3.73;3.33;;;;;;;;;;5014943;28;20368;-75
2023/01/28 02:23:36;;;;;;;3.47;3.17;;;;;;;;;;4974399;28;20258;-75
2023/01/28 02:26:21;;;;;;;3.33;3.03;;;;;;;;;;5014056;28;20221;-75
2023/01/28 02:29:05;;;;;;;3.50;3.20;;;;;;;;;;5016696;28;20273;-75
2023/01/28 02:31:41;;;;;;;3.30;3.00;;;;;;;;;;5015762;28;20903;-75
2023/01/28 02:34:31;;;;;;;3.40;3.03;;;;;;;;;;5040188;28;20193;-74
2023/01/28 02:36:59;;;;;;;3.47;3.07;;;;;;;;;;5006110;28;20202;-74
2023/01/28 02:39:31;;;;;;;3.90;3.40;;;;;;;;;;5015543;28;20191;-74
2023/01/28 02:42:17;;;;;;;3.00;2.70;;;;;;;;;;5015618;28;20184;-75
2023/01/28 02:44:43;;;;;;;3.20;2.90;;;;;;;;;;5016384;28;20218;-75
2023/01/28 02:49:57;;;;;;;3.63;3.23;;;;;;;;;;5013939;28;20190;-74
2023/01/28 02:55:39;;;;;;;3.60;3.30;;;;;;;;;;5037224;28;20248;-75
2023/01/28 02:58:24;;;;;;;4.27;3.10;;;;;;;;;;4997704;28;20183;-75
2023/01/28 03:01:10;;;;;;;3.43;3.10;;;;;;;;;;5021789;28;20198;-75
2023/01/28 03:03:51;;;;;;;3.47;3.17;;;;;;;;;;5014652;28;20179;-75
2023/01/28 03:06:20;;;;;;;5.97;3.23;;;;;;;;;;5013302;28;20229;-75
2023/01/28 03:36:54;;;;;;;2.90;2.60;;;;;;;;;;5014983;28;20225;-74
2023/01/28 03:39:35;;;;;;;3.20;2.90;;;;;;;;;;5013902;28;20195;-75
2023/01/28 03:42:05;;;;;;;3.60;2.90;;;;;;;;;;5012719;28;20757;-75
2023/01/28 03:47:17;;;;;;;4.27;3.17;;;;;;;;;;5013430;28;20249;-75
2023/01/28 03:49:44;;;;;;;3.97;3.57;;;;;;;;;;5014676;28;20198;-75
2023/01/28 03:52:15;;;;;;;3.50;3.20;;;;;;;;;;5013830;28;20206;-75
2023/01/28 03:54:41;;;;;;;4.30;3.67;;;;;;;;;;5016543;28;20218;-75
2023/01/28 03:57:07;;;;;;;4.93;3.40;;;;;;;;;;5012971;28;20202;-75
2023/01/28 03:59:34;;;;;;;4.73;4.00;;;;;;;;;;5013216;28;20186;-75
2023/01/28 04:02:02;;;;;;;4.60;3.67;;;;;;;;;;5014595;28;20183;-74
2023/01/28 04:04:31;;;;;;;3.93;3.47;;;;;;;;;;5001021;28;20188;-74
2023/01/28 04:06:58;;;;;;;5.30;3.63;;;;;;;;;;5013701;28;20240;-75
2023/01/28 04:09:24;;;;;;;3.60;3.30;;;;;;;;;;5013017;28;20179;-75
2023/01/28 04:12:09;;;;;;;4.00;3.60;;;;;;;;;;5014344;28;20206;-75
2023/01/28 04:14:41;;;;;;;4.00;3.60;;;;;;;;;;5022585;28;20213;-74
2023/01/28 04:17:15;;;;;;;4.23;3.50;;;;;;;;;;5036685;28;20195;-74
2023/01/28 04:19:42;;;;;;;3.40;3.10;;;;;;;;;;5013319;28;20196;-75
2023/01/28 04:22:10;;;;;;;4.00;3.30;;;;;;;;;;5011974;28;20179;-75
2023/01/28 04:24:36;;;;;;;4.30;3.40;;;;;;;;;;5013393;28;20210;-75
2023/01/28 04:27:02;;;;;;;4.03;3.40;;;;;;;;;;5013671;28;20221;-74
2023/01/28 04:29:28;;;;;;;3.27;2.90;;;;;;;;;;5032513;28;20657;-74
2023/01/28 04:32:00;;;;;;;4.03;3.40;;;;;;;;;;5001400;28;20306;-74
2023/01/28 04:34:35;;;;;;;3.83;3.40;;;;;;;;;;5012862;28;20452;-75
2023/01/28 04:37:21;;;;;;;3.53;3.23;;;;;;;;;;5011415;28;20210;-75
2023/01/28 04:40:09;;;;;;;4.37;3.67;;;;;;;;;;5014321;28;20183;-75
2023/01/28 04:42:59;;;;;;;3.57;3.20;;;;;;;;;;5005993;28;21381;-74
2023/01/28 04:45:46;;;;;;;4.40;3.10;;;;;;;;;;5011043;28;20252;-75
2023/01/28 04:48:39;;;;;;;3.10;2.80;;;;;;;;;;5016155;28;20213;-75
2023/01/28 04:51:29;;;;;;;4.10;3.20;;;;;;;;;;4984899;28;20222;-74
2023/01/28 04:54:13;;;;;;;3.67;3.00;;;;;;;;;;5012251;28;20310;-75
2023/01/28 04:56:40;;;;;;;3.30;3.00;;;;;;;;;;5011913;28;20198;-75
2023/01/28 04:59:07;;;;;;;4.43;2.70;;;;;;;;;;5011214;28;20182;-75
2023/01/28 05:01:34;;;;;;;3.37;3.07;;;;;;;;;;5018115;28;20186;-75
2023/01/28 05:04:04;;;;;;;3.83;3.20;;;;;;;;;;5012394;28;20178;-75
2023/01/28 05:06:31;;;;;;;5.20;3.10;;;;;;;;;;5010764;28;20214;-75
2023/01/28 05:09:00;;;;;;;4.43;3.40;;;;;;;;;;5012982;28;20205;-74
2023/01/28 05:11:27;;;;;;;3.80;3.20;;;;;;;;;;5010916;28;20225;-75
2023/01/28 05:13:58;;;;;;;4.40;3.27;;;;;;;;;;5011239;28;20682;-75
2023/01/28 05:16:31;;;;;;;4.10;3.27;;;;;;;;;;5014110;28;20829;-75
2023/01/28 05:18:57;;;;;;;3.07;2.77;;;;;;;;;;5016383;28;20178;-75
2023/01/28 05:21:23;;;;;;;3.00;2.80;;;;;;;;;;5002418;28;20249;-74
2023/01/28 05:23:57;;;;;;;3.67;3.20;;;;;;;;;;5022134;28;20202;-75
2023/01/28 05:26:23;;;;;;;3.63;3.00;;;;;;;;;;4999026;28;21311;-75
2023/01/28 05:28:50;;;;;;;3.67;3.10;;;;;;;;;;5015863;28;20182;-74
2023/01/28 05:31:17;;;;;;;4.30;3.40;;;;;;;;;;5016103;28;20580;-75
2023/01/28 05:33:43;;;;;;;4.47;3.60;;;;;;;;;;5020812;28;20237;-75
2023/01/28 05:36:11;;;;;;;4.30;3.50;;;;;;;;;;5019173;28;20422;-75
2023/01/28 05:38:38;;;;;;;3.37;3.07;;;;;;;;;;5016125;28;20239;-73
2023/01/28 05:41:04;;;;;;;3.83;3.30;;;;;;;;;;5017980;28;20212;-73
2023/01/28 05:43:31;;;;;;;4.43;3.10;;;;;;;;;;5016397;28;20193;-73
2023/01/28 05:46:25;;;;;;;3.60;3.00;;;;;;;;;;5015333;28;20719;-74
2023/01/28 05:49:07;;;;;;;3.60;3.30;;;;;;;;;;5018337;28;20270;-75
2023/01/28 05:51:48;;;;;;;4.43;3.23;;;;;;;;;;5019247;28;20214;-75
2023/01/28 05:54:18;;;;;;;3.63;3.30;;;;;;;;;;5002671;28;20642;-75
2023/01/28 05:56:46;;;;;;;3.30;3.00;;;;;;;;;;5040183;28;20209;-75
2023/01/28 05:59:12;;;;;;;3.60;3.30;;;;;;;;;;5019481;28;20191;-75
2023/01/28 06:01:41;;;;;;;4.90;3.30;;;;;;;;;;5018262;28;20586;-75
2023/01/28 06:04:07;;;;;;;3.93;3.43;;;;;;;;;;5017782;28;20183;-75
2023/01/28 06:06:33;;;;;;;5.00;3.43;;;;;;;;;;5018161;28;20209;-74
2023/01/28 06:09:01;;;;;;;4.90;3.97;;;;;;;;;;5016652;28;20190;-74
2023/01/28 06:11:30;;;;;;;4.87;3.53;;;;;;;;;;5016103;28;20207;-75
2023/01/28 06:14:00;;;;;;;3.93;3.47;;;;;;;;;;5016709;28;20183;-74
2023/01/28 06:16:45;;;;;;;4.43;3.60;;;;;;;;;;5015623;28;20172;-73
2023/01/28 06:19:44;;;;;;;5.00;3.70;;;;;;;;;;5015584;28;20198;-75
2023/01/28 06:22:10;;;;;;;4.50;3.73;;;;;;;;;;5019287;28;20202;-75
2023/01/28 06:24:36;;;;;;;4.03;3.63;;;;;;;;;;5017721;28;20256;-75
2023/01/28 06:27:02;;;;;;;4.57;4.07;;;;;;;;;;5019179;28;20193;-75
2023/01/28 06:29:29;;;;;;;5.10;4.17;;;;;;;;;;5017557;28;20205;-75
2023/01/28 06:31:55;;;;;;;5.03;4.10;;;;;;;;;;5015422;28;20215;-75
2023/01/28 06:34:21;;;;;;;5.60;4.37;;;;;;;;;;5014722;28;20183;-75
2023/01/28 06:36:47;;;;;;;4.90;4.03;;;;;;;;;;5013070;28;20233;-75
2023/01/28 06:39:13;;;;;;;5.17;4.10;;;;;;;;;;5023523;28;20670;-75
2023/01/28 06:41:39;;;;;;;4.70;3.90;;;;;;;;;;5014483;28;20198;-73
2023/01/28 06:44:05;;;;;;;4.53;3.60;;;;;;;;;;5015179;28;20202;-75
2023/01/28 06:46:32;;;;;;;4.80;4.10;;;;;;;;;;5015276;28;20219;-75
2023/01/28 06:48:58;;;;;;;5.00;4.37;;;;;;;;;;5014372;28;20226;-75
2023/01/28 06:51:24;;;;;;;4.70;4.20;;;;;;;;;;5008798;28;20230;-74
2023/01/28 06:53:50;;;;;;;5.63;4.23;;;;;;;;;;5013619;28;20187;-75
2023/01/28 06:56:16;;;;;;;6.03;4.60;;;;;;;;;;5014629;28;20218;-75
2023/01/28 06:58:43;;;;;;;4.80;4.30;;;;;;;;;;5015359;28;20190;-75
2023/01/28 07:01:09;;;;;;;4.97;4.43;;;;;;;;;;5012551;28;20241;-74
2023/01/28 07:03:36;;;;;;;6.90;4.40;;;;;;;;;;5015287;28;20240;-75
2023/01/28 07:06:02;;;;;;;4.80;4.30;;;;;;;;;;5014890;28;20206;-75
2023/01/28 07:08:28;;;;;;;5.00;4.50;;;;;;;;;;5013890;28;20222;-75
2023/01/28 07:10:54;;;;;;;4.97;4.40;;;;;;;;;;5015616;28;20285;-75
2023/01/28 07:13:21;;;;;;;5.87;4.63;;;;;;;;;;5017049;28;20182;-75
2023/01/28 07:15:48;;;;;;;5.40;4.23;;;;;;;;;;5014526;28;20669;-74
2023/01/28 07:18:14;;;;;;;4.63;4.00;;;;;;;;;;5017364;28;20448;-75
2023/01/28 07:20:40;;;;;;;4.80;4.30;;;;;;;;;;5013551;28;20185;-74
2023/01/28 07:23:07;;;;;;;4.67;4.23;;;;;;;;;;5015736;28;20678;-75
2023/01/28 07:25:33;;;;;;;6.43;4.50;;;;;;;;;;5012263;28;20211;-75
2023/01/28 07:27:59;;;;;;;5.03;4.40;;;;;;;;;;5013898;28;20191;-75
2023/01/28 07:30:25;;;;;;;5.17;4.53;;;;;;;;;;5017254;28;20191;-75
2023/01/28 07:32:55;;;;;;;4.73;4.23;;;;;;;;;;5015989;28;20740;-74
2023/01/28 07:35:21;;;;;;;5.20;4.40;;;;;;;;;;5015202;28;20195;-74
2023/01/28 07:37:51;;;;;;;5.03;4.23;;;;;;;;;;5015627;28;20653;-75
2023/01/28 07:40:17;;;;;;;4.77;4.27;;;;;;;;;;5016537;28;20190;-74
2023/01/28 07:42:43;;;;;;;5.67;4.43;;;;;;;;;;5012240;28;20198;-74
2023/01/28 07:45:11;;;;;;;6.17;4.30;;;;;;;;;;5014638;28;20202;-75
2023/01/28 07:47:37;;;;;;;5.50;4.63;;;;;;;;;;5014217;28;20605;-74
2023/01/28 07:50:03;;;;;;;5.33;4.60;;;;;;;;;;5013237;28;20228;-74
2023/01/28 07:52:30;;;;;;;4.87;4.03;;;;;;;;;;5016079;28;20199;-75
2023/01/28 07:54:56;;;;;;;5.40;4.30;;;;;;;;;;5014107;28;20218;-75
2023/01/28 07:57:22;;;;;;;5.40;4.20;;;;;;;;;;5015626;28;20176;-75
2023/01/28 07:59:51;;;;;;;5.37;4.70;;;;;;;;;;5015267;28;20179;-74
2023/01/28 08:02:17;;;;;;;5.53;4.67;;;;;;;;;;5012130;28;20245;-75
2023/01/28 08:04:44;;;;;;;6.43;4.47;;;;;;;;;;5012468;28;20218;-74
2023/01/28 08:07:10;;;;;;;5.30;4.50;;;;;;;;;;5013411;28;20191;-76
2023/01/28 08:09:36;;;;;;;6.57;4.90;;;;;;;;;;5015840;28;20633;-76
2023/01/28 08:12:02;;;;;;;5.70;4.80;;;;;;;;;;5017284;28;20207;-80
2023/01/28 08:14:28;;;;;;;7.60;5.97;;;;;;;;;;5015923;28;20218;-75
2023/01/28 08:16:54;;;;;;;7.37;5.70;;;;;;;;;;5015559;28;20186;-75
2023/01/28 08:19:20;;;;;;;6.40;5.33;;;;;;;;;;5014646;28;20179;-75
2023/01/28 08:21:47;;;;;;;6.80;5.70;;;;;;;;;;5016771;28;20194;-77
2023/01/28 08:24:13;;;;;;;6.93;5.53;;;;;;;;;;5016565;28;20179;-77
2023/01/28 08:26:40;;;;;;;6.87;5.70;;;;;;;;;;5018771;28;20174;-77
2023/01/28 08:29:06;;;;;;;9.80;5.57;;;;;;;;;;5017939;28;20206;-77
2023/01/28 08:31:32;;;;;;;6.60;4.70;;;;;;;;;;5012402;28;20203;-76
2023/01/28 08:33:58;;;;;;;7.60;4.80;;;;;;;;;;5016558;28;20186;-76
2023/01/28 08:36:25;;;;;;;7.13;4.83;;;;;;;;;;5017959;28;20717;-77
2023/01/28 08:38:53;;;;;;;6.70;5.20;;;;;;;;;;5013844;28;20179;-74
2023/01/28 08:41:21;;;;;;;9.30;6.80;;;;;;;;;;5013394;28;20183;-74
2023/01/28 08:43:47;;;;;;;8.87;6.10;;;;;;;;;;5015586;28;20190;-74
2023/01/28 08:46:13;;;;;;;6.83;5.70;;;;;;;;;;5012755;28;20228;-74
2023/01/28 08:48:39;;;;;;;8.50;5.37;;;;;;;;;;5016533;28;20182;-74
2023/01/28 08:51:05;;;;;;;6.33;5.03;;;;;;;;;;5015456;28;20215;-74
2023/01/28 08:53:31;;;;;;;7.43;6.03;;;;;;;;;;5015123;28;20649;-74
2023/01/28 08:55:58;;;;;;;7.10;5.57;;;;;;;;;;5013318;28;20214;-74
2023/01/28 08:58:24;;;;;;;8.37;5.33;;;;;;;;;;5014351;28;20191;-74
2023/01/28 09:00:50;;;;;;;7.63;5.90;;;;;;;;;;5015481;28;20191;-73
2023/01/28 09:03:17;;;;;;;7.73;5.17;;;;;;;;;;5035445;28;20186;-74
2023/01/28 09:05:43;;;;;;;6.53;5.27;;;;;;;;;;5012994;28;20210;-74
2023/01/28 09:08:10;;;;;;;6.33;5.03;;;;;;;;;;5014681;28;20322;-74
2023/01/28 09:10:37;;;;;;;6.33;4.97;;;;;;;;;;5014935;28;20230;-74
2023/01/28 09:13:14;;;;;;;6.20;5.00;;;;;;;;;;5014628;28;20669;-74
2023/01/28 09:15:40;;;;;;;7.40;4.90;;;;;;;;;;5015410;28;20207;-74
2023/01/28 09:18:06;;;;;;;5.50;4.83;;;;;;;;;;5016330;28;20746;-74
2023/01/28 09:20:33;;;;;;;5.60;4.53;;;;;;;;;;5013695;28;20526;-74
2023/01/28 09:23:00;;;;;;;5.50;4.53;;;;;;;;;;5013718;28;20187;-74
2023/01/28 09:25:26;;;;;;;5.80;4.53;;;;;;;;;;5013861;28;20252;-74
2023/01/28 09:27:52;;;;;;;6.43;4.80;;;;;;;;;;5010932;28;20553;-74
2023/01/28 09:30:19;;;;;;;5.50;4.90;;;;;;;;;;5013670;28;20191;-74
2023/01/28 09:32:45;;;;;;;7.47;4.80;;;;;;;;;;5013775;28;20187;-74
2023/01/28 09:35:11;;;;;;;6.17;4.43;;;;;;;;;;5014384;28;20295;-74
2023/01/28 09:37:37;;;;;;;7.00;4.80;;;;;;;;;;5013998;28;20179;-74
2023/01/28 09:40:04;;;;;;;7.73;4.80;;;;;;;;;;5013241;28;20186;-74
2023/01/28 09:42:39;;;;;;;5.60;5.00;;;;;;;;;;5013683;28;20213;-74
2023/01/28 09:45:24;;;;;;;7.97;4.90;;;;;;;;;;5014360;28;20202;-74
2023/01/28 09:47:52;;;;;;;5.57;4.63;;;;;;;;;;5014582;28;20197;-74
2023/01/28 09:50:22;;;;;;;6.60;4.90;;;;;;;;;;5011857;28;20283;-74
2023/01/28 09:52:49;;;;;;;7.97;5.10;;;;;;;;;;5030449;28;20187;-74
2023/01/28 09:55:18;;;;;;;7.07;4.73;;;;;;;;;;5012887;28;20218;-74
2023/01/28 09:58:05;;;;;;;7.20;5.10;;;;;;;;;;5017337;28;20833;-74
2023/01/28 10:00:31;;;;;;;8.57;5.00;;;;;;;;;;5016586;28;20266;-74
2023/01/28 10:03:00;;;;;;;5.17;4.40;;;;;;;;;;5019913;28;20366;-74
2023/01/28 10:05:43;;;;;;;5.93;4.30;;;;;;;;;;5020379;28;20206;-73
2023/01/28 10:08:29;;;;;;;7.00;4.77;;;;;;;;;;5021684;28;20665;-74
2023/01/28 10:10:55;;;;;;;7.23;4.80;;;;;;;;;;5023997;28;20205;-74
2023/01/28 10:13:38;;;;;;;6.00;4.63;;;;;;;;;;5025307;28;20202;-74
2023/01/28 10:16:11;;;;;;;5.23;4.53;;;;;;;;;;5023228;28;20203;-74
2023/01/28 10:18:43;;;;;;;6.33;4.57;;;;;;;;;;5022485;28;20187;-74
2023/01/28 10:21:16;;;;;;;5.40;4.50;;;;;;;;;;5023744;28;20213;-74
2023/01/28 10:23:49;;;;;;;6.67;4.73;;;;;;;;;;5007192;28;20194;-74
2023/01/28 10:26:23;;;;;;;7.23;4.87;;;;;;;;;;5019659;28;20635;-74
2023/01/28 10:28:52;;;;;;;5.53;4.33;;;;;;;;;;5022112;28;20187;-74
2023/01/28 10:31:19;;;;;;;6.00;4.10;;;;;;;;;;5022019;28;20290;-74
2023/01/28 10:33:46;;;;;;;6.60;4.30;;;;;;;;;;5018779;28;20293;-74
2023/01/28 10:36:12;;;;;;;5.10;4.27;;;;;;;;;;5017689;28;20215;-75
2023/01/28 10:38:38;;;;;;;5.90;4.10;;;;;;;;;;5019723;28;20291;-74
2023/01/28 10:41:05;;;;;;;5.03;4.27;;;;;;;;;;5019320;28;20186;-74
2023/01/28 10:43:36;;;;;;;7.63;4.20;;;;;;;;;;5020391;28;20183;-74
2023/01/28 10:46:02;;;;;;;6.60;4.50;;;;;;;;;;5017105;28;20203;-74
2023/01/28 10:48:30;;;;;;;7.73;4.70;;;;;;;;;;5014030;28;20211;-74
2023/01/28 10:51:00;;;;;;;5.93;4.37;;;;;;;;;;5014795;28;20210;-74
2023/01/28 10:53:34;;;;;;;6.50;4.70;;;;;;;;;;5016765;28;20185;-74
2023/01/28 10:56:01;;;;;;;5.10;4.30;;;;;;;;;;5015509;28;20225;-74
2023/01/28 10:58:28;;;;;;;6.10;4.40;;;;;;;;;;5000189;28;20486;-74
2023/01/28 11:01:06;;;;;;;5.17;4.00;;;;;;;;;;5017629;28;20207;-74
2023/01/28 11:03:36;;;;;;;6.10;4.30;;;;;;;;;;5019647;28;20187;-74
2023/01/28 11:06:02;;;;;;;5.07;3.90;;;;;;;;;;5015214;28;20801;-74
2023/01/28 11:08:29;;;;;;;4.60;3.83;;;;;;;;;;5017758;28;20191;-74
2023/01/28 11:10:56;;;;;;;5.10;4.43;;;;;;;;;;5021248;28;20206;-74
2023/01/28 11:13:26;;;;;;;7.00;4.20;;;;;;;;;;5017120;28;20269;-74
2023/01/28 11:16:13;;;;;;;8.50;4.33;;;;;;;;;;5016264;28;20225;-74
2023/01/28 11:18:40;;;;;;;4.90;3.70;;;;;;;;;;5019114;28;20214;-74
2023/01/28 11:21:15;;;;;;;5.67;4.30;;;;;;;;;;5016283;28;20189;-75
2023/01/28 11:23:47;;;;;;;5.17;4.30;;;;;;;;;;5017555;28;20178;-75
2023/01/28 11:26:31;;;;;;;5.10;4.30;;;;;;;;;;5015645;28;20210;-75
2023/01/28 11:28:57;;;;;;;6.43;3.97;;;;;;;;;;5017548;28;20186;-75
2023/01/28 11:31:23;;;;;;;4.30;3.77;;;;;;;;;;5019395;28;20211;-74
2023/01/28 11:33:56;;;;;;;6.10;3.90;;;;;;;;;;5022588;28;21046;-75
2023/01/28 11:36:23;;;;;;;5.80;4.10;;;;;;;;;;5016606;28;20233;-75
2023/01/28 11:39:13;;;;;;;4.93;3.90;;;;;;;;;;5017609;28;20174;-74
2023/01/28 11:41:39;;;;;;;6.43;4.60;;;;;;;;;;5012391;28;20202;-75
2023/01/28 11:44:20;;;;;;;5.47;4.03;;;;;;;;;;5017865;28;20194;-74
2023/01/28 11:47:01;;;;;;;6.97;4.40;;;;;;;;;;5015999;28;20190;-76
2023/01/28 11:49:45;;;;;;;4.53;3.73;;;;;;;;;;5015763;28;20273;-76
2023/01/28 11:52:24;;;;;;;5.40;3.60;;;;;;;;;;5012946;28;20244;-73
2023/01/28 11:55:09;;;;;;;4.80;3.67;;;;;;;;;;5014473;28;20245;-75
2023/01/28 11:57:44;;;;;;;3.93;3.40;;;;;;;;;;5015927;28;20198;-79
2023/01/28 12:00:39;;;;;;;5.73;4.10;;;;;;;;;;5020222;28;20184;-80
2023/01/28 12:03:23;;;;;;;4.60;3.57;;;;;;;;;;5008420;28;20690;-80
2023/01/28 12:05:56;;;;;;;5.20;3.50;;;;;;;;;;5017537;28;20287;-78
2023/01/28 12:08:29;;;;;;;7.63;5.50;;;;;;;;;;5017894;28;20261;-79
2023/01/28 12:10:55;;;;;;;6.90;5.70;;;;;;;;;;5018322;28;20199;-78
2023/01/28 12:13:30;;;;;;;4.43;3.50;;;;;;;;;;5015562;28;20179;-79
2023/01/28 12:16:00;;;;;;;6.10;3.80;;;;;;;;;;5014367;28;20215;-77
2023/01/28 12:18:34;;;;;;;6.43;4.77;;;;;;;;;;5015868;28;20212;-78
2023/01/28 12:21:07;;;;;;;5.83;3.97;;;;;;;;;;5014763;28;20214;-77
2023/01/28 12:23:34;;;;;;;7.27;4.93;;;;;;;;;;5016509;28;20195;-79
2023/01/28 12:26:04;;;;;;;6.10;3.13;;;;;;;;;;5019809;28;20225;-77
2023/01/28 12:28:39;;;;;;;4.63;3.13;;;;;;;;;;5016982;28;20262;-77
2023/01/28 12:31:14;;;;;;;3.80;2.97;;;;;;;;;;5016050;28;20203;-81
2023/01/28 12:33:59;;;;;;;4.10;2.87;;;;;;;;;;5015944;28;20269;-83
2023/01/28 12:36:34;;;;;;;3.57;3.10;;;;;;;;;;5016356;28;20908;-80
2023/01/28 12:39:00;;;;;;;4.50;3.00;;;;;;;;;;5016956;28;20202;-77
2023/01/28 12:41:39;;;;;;;6.37;3.33;;;;;;;;;;5015849;28;20175;-78
2023/01/28 12:44:10;;;;;;;9.27;6.30;;;;;;;;;;5015718;28;20654;-77
2023/01/28 12:46:42;;;;;;;5.63;3.23;;;;;;;;;;5015359;28;20210;-77
2023/01/28 12:49:08;;;;;;;4.90;3.30;;;;;;;;;;5014027;28;20187;-77
2023/01/28 12:51:41;;;;;;;4.40;3.77;;;;;;;;;;5014651;28;20202;-76
2023/01/28 12:54:26;;;;;;;4.03;2.90;;;;;;;;;;5015664;28;20202;-78
2023/01/28 12:56:54;;;;;;;3.33;2.90;;;;;;;;;;5018255;28;20175;-79
2023/01/28 12:59:23;;;;;;;3.30;2.70;;;;;;;;;;5018084;28;20190;-75
2023/01/28 13:01:53;;;;;;;3.23;2.50;;;;;;;;;;5016750;28;20186;-75
2023/01/28 13:04:23;;;;;;;4.10;3.23;;;;;;;;;;5016878;28;20197;-75
2023/01/28 13:06:51;;;;;;;5.00;3.40;;;;;;;;;;5015240;28;20274;-75
2023/01/28 13:09:20;;;;;;;5.60;3.60;;;;;;;;;;5015099;28;20256;-75
2023/01/28 13:11:47;;;;;;;3.67;3.10;;;;;;;;;;5015780;28;20253;-75
2023/01/28 13:14:14;;;;;;;4.60;2.90;;;;;;;;;;5014696;28;20187;-75
2023/01/28 13:16:40;;;;;;;3.77;3.10;;;;;;;;;;5015105;28;20225;-75
2023/01/28 13:19:08;;;;;;;4.10;3.07;;;;;;;;;;5016207;28;20202;-75
2023/01/28 13:21:35;;;;;;;4.93;3.30;;;;;;;;;;5036760;28;20191;-75
2023/01/28 13:24:01;;;;;;;3.87;3.43;;;;;;;;;;5016151;28;20210;-75
2023/01/28 13:26:37;;;;;;;4.93;3.00;;;;;;;;;;5014557;28;20226;-75
2023/01/28 13:29:08;;;;;;;4.13;3.63;;;;;;;;;;5017874;28;20486;-75
2023/01/28 13:31:40;;;;;;;4.73;3.43;;;;;;;;;;5021359;28;20631;-75
2023/01/28 13:34:07;;;;;;;5.00;3.90;;;;;;;;;;5018429;28;20237;-75
2023/01/28 13:36:44;;;;;;;5.93;4.30;;;;;;;;;;5016473;28;20217;-76
2023/01/28 13:39:13;;;;;;;5.97;3.93;;;;;;;;;;5016762;28;20175;-76
2023/01/28 13:41:41;;;;;;;4.73;3.53;;;;;;;;;;5017553;28;20186;-76
2023/01/28 13:44:25;;;;;;;4.00;3.60;;;;;;;;;;5020048;28;20183;-78
2023/01/28 13:47:12;;;;;;;6.00;4.30;;;;;;;;;;5019803;28;20750;-76
2023/01/28 13:49:38;;;;;;;5.47;3.90;;;;;;;;;;5020297;28;20193;-77
2023/01/28 13:52:08;;;;;;;6.50;5.80;;;;;;;;;;5021668;28;20277;-77
2023/01/28 13:54:36;;;;;;;8.00;5.60;;;;;;;;;;5021605;28;20227;-76
2023/01/28 13:57:14;;;;;;;4.87;4.30;;;;;;;;;;5018022;28;20202;-77
2023/01/28 13:59:58;;;;;;;4.57;3.70;;;;;;;;;;5021890;28;20229;-77
2023/01/28 14:02:42;;;;;;;4.93;4.07;;;;;;;;;;5020565;28;20385;-77
2023/01/28 14:05:20;;;;;;;5.63;4.33;;;;;;;;;;5018454;28;20203;-76
2023/01/28 14:07:55;;;;;;;7.00;4.90;;;;;;;;;;5019939;28;20190;-76
2023/01/28 14:10:38;;;;;;;5.60;4.43;;;;;;;;;;5020346;28;20181;-76
2023/01/28 14:13:20;;;;;;;6.00;4.50;;;;;;;;;;5020520;28;20796;-77
2023/01/28 14:15:49;;;;;;;5.43;4.73;;;;;;;;;;5019084;28;20698;-79
2023/01/28 14:18:24;;;;;;;4.70;4.20;;;;;;;;;;5019527;28;20195;-75
2023/01/28 14:20:51;;;;;;;5.23;3.80;;;;;;;;;;5017246;28;20178;-76
2023/01/28 14:23:20;;;;;;;5.10;4.40;;;;;;;;;;5020805;28;20692;-73
2023/01/28 14:25:58;;;;;;;7.30;5.60;;;;;;;;;;5018035;28;20779;-74
2023/01/28 14:28:33;;;;;;;6.83;5.47;;;;;;;;;;5016855;28;20627;-73
2023/01/28 14:31:10;;;;;;;6.03;5.27;;;;;;;;;;5015820;28;20218;-75
2023/01/28 14:33:36;;;;;;;5.73;5.17;;;;;;;;;;5017311;28;20179;-73
2023/01/28 14:36:03;;;;;;;4.53;3.60;;;;;;;;;;5015749;28;20195;-74
2023/01/28 14:38:31;;;;;;;4.33;3.60;;;;;;;;;;5017699;28;20515;-73
2023/01/28 14:40:57;;;;;;;5.13;3.90;;;;;;;;;;5018706;28;20175;-76
2023/01/28 14:43:25;;;;;;;5.93;3.70;;;;;;;;;;5019968;28;20190;-74
2023/01/28 14:45:58;;;;;;;4.47;3.80;;;;;;;;;;5017381;28;20209;-74
2023/01/28 14:48:37;;;;;;;4.20;3.80;;;;;;;;;;5017116;28;20277;-74
2023/01/28 14:51:09;;;;;;;5.20;4.70;;;;;;;;;;5021920;28;20216;-74
2023/01/28 14:53:51;;;;;;;6.93;4.37;;;;;;;;;;5018158;28;20270;-74
2023/01/28 14:56:44;;;;;;;6.00;4.40;;;;;;;;;;5016877;28;20198;-73
2023/01/28 14:59:26;;;;;;;48.80;6.60;;;;;;;;;;5016244;28;20647;-73
2023/01/28 15:01:57;;;;;;;21.97;5.90;;;;;;;;;;5016722;28;20198;-73
2023/01/28 15:04:33;;;;;;;5.67;4.63;;;;;;;;;;5002520;28;20182;-74
2023/01/28 15:07:16;;;;;;;6.43;4.90;;;;;;;;;;5036518;28;20727;-73
2023/01/28 15:09:42;;;;;;;8.37;5.13;;;;;;;;;;5019829;28;20209;-74
2023/01/28 15:12:08;;;;;;;8.07;4.60;;;;;;;;;;5015470;28;20844;-74
2023/01/28 15:14:34;;;;;;;6.57;4.33;;;;;;;;;;5015853;28;20617;-74
2023/01/28 15:17:01;;;;;;;12.30;5.13;;;;;;;;;;5011897;28;20178;-73
2023/01/28 15:19:28;;;;;;;10.77;4.97;;;;;;;;;;5018229;28;20182;-73
2023/01/28 15:22:02;;;;;;;9.83;5.63;;;;;;;;;;5015013;28;20190;-73
2023/01/28 15:24:28;;;;;;;6.57;4.53;;;;;;;;;;5014194;28;20880;-73
2023/01/28 15:26:55;;;;;;;14.47;4.83;;;;;;;;;;5012847;28;20186;-73
2023/01/28 15:29:25;;;;;;;6.67;5.70;;;;;;;;;;5006820;28;21156;-73
2023/01/28 15:31:51;;;;;;;4.90;4.30;;;;;;;;;;5012023;28;20202;-73
2023/01/28 15:34:19;;;;;;;5.90;4.57;;;;;;;;;;5014333;28;20186;-73
2023/01/28 15:36:46;;;;;;;8.77;6.63;;;;;;;;;;5010120;28;20187;-73
2023/01/28 15:39:17;;;;;;;12.93;9.70;;;;;;;;;;5013407;28;20258;-73
2023/01/28 15:41:45;;;;;;;21.67;16.53;;;;;;;;;;5013114;28;20188;-73